Time;durP1;ratioP1;P1;durP2;ratioP2;P2;SDS_P1;SDS_P2;PMS_P1;PMS_P2;Temp;Humidity;BMP_temperature;BMP_pressure;BME280_temperature;BME280_humidity;BME280_pressure;Samples;Min_cycle;Max_cycle;Signal;HPM_P1;HPM_P2
2023/04/20 00:02:02;;;;;;;7.43;4.65;;;2.20;99.90;;;;;;5021294;28;20187;-80
2023/04/20 00:04:28;;;;;;;5.80;3.83;;;2.10;99.90;;;;;;5023378;28;20744;-82
2023/04/20 00:06:55;;;;;;;8.45;4.13;;;2.10;99.90;;;;;;5021479;28;20174;-81
2023/04/20 00:09:22;;;;;;;6.88;3.65;;;2.00;99.90;;;;;;5023570;28;20236;-82
2023/04/20 00:11:47;;;;;;;6.72;3.72;;;2.00;99.90;;;;;;4995046;28;20181;-82
2023/04/20 00:14:14;;;;;;;9.93;3.93;;;2.00;99.90;;;;;;5022224;28;20545;-83
2023/04/20 00:16:40;;;;;;;7.15;4.47;;;2.00;99.90;;;;;;5022500;28;20444;-82
2023/04/20 00:19:06;;;;;;;5.43;3.53;;;1.90;99.90;;;;;;5002512;28;20435;-82
2023/04/20 00:21:32;;;;;;;7.83;3.97;;;1.90;99.90;;;;;;5021394;28;20439;-80
2023/04/20 00:23:58;;;;;;;8.50;4.07;;;1.80;99.90;;;;;;5021392;28;20524;-82
2023/04/20 00:26:23;;;;;;;5.07;4.00;;;1.80;99.90;;;;;;5020536;28;20309;-82
2023/04/20 00:28:50;;;;;;;8.27;4.40;;;1.90;99.90;;;;;;5021467;28;20560;-82
2023/04/20 00:31:16;;;;;;;6.75;3.85;;;1.90;99.90;;;;;;5023520;28;20233;-83
2023/04/20 00:33:41;;;;;;;8.67;4.40;;;1.90;99.90;;;;;;5022145;28;20717;-82
2023/04/20 00:36:07;;;;;;;7.70;5.10;;;1.90;99.90;;;;;;5000833;28;20228;-82
2023/04/20 00:38:32;;;;;;;7.43;4.00;;;1.80;99.90;;;;;;5019152;28;20185;-82
2023/04/20 00:40:58;;;;;;;8.57;4.90;;;1.80;99.90;;;;;;5021196;28;20528;-82
2023/04/20 00:43:24;;;;;;;6.53;4.10;;;1.80;99.90;;;;;;5007777;28;20205;-82
2023/04/20 00:45:51;;;;;;;5.80;3.50;;;1.80;99.90;;;;;;5007747;28;20202;-81
2023/04/20 00:48:17;;;;;;;6.38;3.65;;;1.90;99.90;;;;;;5022290;28;20189;-81
2023/04/20 00:50:43;;;;;;;7.50;4.15;;;1.80;99.90;;;;;;5022535;28;20573;-83
2023/04/20 00:53:10;;;;;;;6.60;3.67;;;1.80;99.90;;;;;;5020392;28;20178;-82
2023/04/20 00:55:36;;;;;;;5.38;4.55;;;1.80;99.90;;;;;;5023145;28;20452;-83
2023/04/20 00:58:02;;;;;;;10.98;4.78;;;1.80;99.90;;;;;;5022622;28;20178;-82
2023/04/20 01:00:27;;;;;;;8.07;3.90;;;1.80;99.90;;;;;;5002723;28;20199;-83
2023/04/20 01:02:53;;;;;;;5.03;3.90;;;1.80;99.90;;;;;;5020296;28;20595;-82
2023/04/20 01:05:19;;;;;;;6.50;4.00;;;1.80;99.90;;;;;;5020536;28;20236;-82
2023/04/20 01:07:45;;;;;;;9.60;4.70;;;1.80;99.90;;;;;;5019495;28;20956;-81
2023/04/20 01:10:11;;;;;;;11.13;4.87;;;1.80;99.90;;;;;;5020875;28;20229;-82
2023/04/20 01:12:36;;;;;;;6.13;4.20;;;1.80;99.90;;;;;;4999388;28;20193;-82
2023/04/20 01:15:04;;;;;;;6.43;4.43;;;1.80;99.90;;;;;;5004355;28;20202;-83
2023/04/20 01:17:31;;;;;;;4.85;3.45;;;1.70;99.90;;;;;;4999610;28;20265;-84
2023/04/20 01:19:58;;;;;;;6.47;4.18;;;1.70;99.90;;;;;;5002080;28;20220;-83
2023/04/20 01:22:25;;;;;;;5.75;3.67;;;1.70;99.90;;;;;;5018963;28;20179;-84
2023/04/20 01:24:51;;;;;;;4.72;3.70;;;1.70;99.90;;;;;;5001617;28;20229;-84
2023/04/20 01:27:17;;;;;;;11.88;4.05;;;1.70;99.90;;;;;;5017619;28;20260;-83
2023/04/20 01:29:43;;;;;;;7.17;4.40;;;1.70;99.90;;;;;;5013156;28;20227;-82
2023/04/20 01:32:10;;;;;;;6.03;3.90;;;1.70;99.90;;;;;;4999782;28;20171;-83
2023/04/20 01:34:36;;;;;;;5.70;4.18;;;1.70;99.90;;;;;;5014027;28;20256;-84
2023/04/20 01:37:06;;;;;;;6.85;4.68;;;1.60;99.90;;;;;;5019226;28;20406;-83
2023/04/20 01:39:35;;;;;;;5.50;4.13;;;1.50;99.90;;;;;;5016471;28;20298;-83
2023/04/20 01:42:01;;;;;;;7.93;4.47;;;1.50;99.90;;;;;;5001234;28;20186;-85
2023/04/20 01:44:27;;;;;;;9.90;4.37;;;;;;;;;;5023438;23;20224;-83
2023/04/20 01:46:52;;;;;;;8.63;4.27;;;1.50;99.90;;;;;;5012115;28;20180;-84
2023/04/20 01:49:18;;;;;;;7.53;4.07;;;;;;;;;;5017243;28;20463;-85
2023/04/20 01:51:44;;;;;;;8.30;4.37;;;1.50;99.90;;;;;;5016115;28;20178;-83
2023/04/20 01:54:10;;;;;;;9.13;5.40;;;;;;;;;;5020396;28;20510;-84
2023/04/20 01:56:35;;;;;;;8.33;4.63;;;1.50;99.90;;;;;;5038560;28;20921;-83
2023/04/20 01:59:01;;;;;;;7.57;4.50;;;;;;;;;;5020968;28;21096;-84
2023/04/20 02:01:27;;;;;;;11.13;5.38;;;1.40;99.90;;;;;;5025432;28;20209;-84
2023/04/20 02:03:52;;;;;;;7.77;3.70;;;1.50;99.90;;;;;;5026628;28;20276;-83
2023/04/20 02:06:18;;;;;;;7.33;4.63;;;1.40;99.90;;;;;;5028538;28;20174;-82
2023/04/20 02:08:43;;;;;;;5.53;4.00;;;1.50;99.90;;;;;;5044426;28;20189;-83
2023/04/20 02:11:09;;;;;;;8.67;4.10;;;;;;;;;;5027533;28;20268;-86
2023/04/20 02:13:35;;;;;;;7.57;4.13;;;1.50;99.90;;;;;;5025931;28;20181;-80
2023/04/20 02:16:01;;;;;;;4.90;3.80;;;;;;;;;;5040199;28;20424;-84
2023/04/20 02:18:29;;;;;;;8.07;4.78;;;1.50;99.90;;;;;;5029664;28;20726;-81
2023/04/20 02:20:54;;;;;;;6.22;4.60;;;1.40;99.90;;;;;;5023296;28;20204;-85
2023/04/20 02:23:20;;;;;;;5.50;4.10;;;;;;;;;;5034577;28;20186;-83
2023/04/20 02:25:46;;;;;;;7.65;4.55;;;1.40;99.90;;;;;;5015874;28;20533;-85
2023/04/20 02:28:11;;;;;;;10.80;4.70;;;1.30;99.90;;;;;;5053132;28;20204;-82
2023/04/20 02:30:37;;;;;;;6.73;4.30;;;1.30;99.90;;;;;;5056311;28;20272;-80
2023/04/20 02:33:02;;;;;;;7.00;4.70;;;1.20;99.90;;;;;;5041721;28;20260;-86
2023/04/20 02:35:28;;;;;;;9.50;5.47;;;1.20;99.90;;;;;;5015640;28;20189;-82
2023/04/20 02:37:53;;;;;;;11.93;6.20;;;1.20;99.90;;;;;;5017111;28;20593;-79
2023/04/20 02:40:19;;;;;;;9.83;5.10;;;1.10;99.90;;;;;;5017443;28;20693;-79
2023/04/20 02:42:45;;;;;;;10.60;5.93;;;;;;;;;;5027573;28;20217;-84
2023/04/20 02:45:11;;;;;;;8.43;4.00;;;1.20;99.90;;;;;;5032730;28;20736;-82
2023/04/20 02:47:36;;;;;;;8.83;5.00;;;;;;;;;;5023874;28;20959;-82
2023/04/20 02:50:03;;;;;;;8.47;5.57;;;1.00;99.90;;;;;;5030883;28;20236;-81
2023/04/20 02:52:28;;;;;;;8.95;4.40;;;1.00;99.90;;;;;;5032200;28;20427;-80
2023/04/20 02:54:54;;;;;;;9.37;4.63;;;;;;;;;;5025403;28;20177;-81
2023/04/20 02:57:20;;;;;;;6.20;4.37;;;;;;;;;;5025188;28;20263;-81
2023/04/20 02:59:46;;;;;;;7.00;4.30;;;1.00;99.90;;;;;;5034823;28;20630;-84
2023/04/20 03:02:11;;;;;;;8.00;5.10;;;1.00;99.90;;;;;;5031005;28;20446;-80
2023/04/20 03:04:38;;;;;;;7.73;4.70;;;1.00;99.90;;;;;;5022435;28;20649;-84
2023/04/20 03:07:03;;;;;;;10.40;4.68;;;1.00;99.90;;;;;;5027086;28;20226;-84
2023/04/20 03:09:29;;;;;;;8.10;5.73;;;1.00;99.90;;;;;;5018611;28;20576;-84
2023/04/20 03:11:54;;;;;;;7.97;5.20;;;1.00;99.90;;;;;;5032157;28;20206;-81
2023/04/20 03:14:20;;;;;;;7.20;4.50;;;;;;;;;;5019906;28;20263;-82
2023/04/20 03:16:46;;;;;;;12.13;5.60;;;0.90;99.90;;;;;;5028021;28;20205;-81
2023/04/20 03:19:12;;;;;;;12.00;5.60;;;;;;;;;;5015273;28;20518;-83
2023/04/20 03:21:38;;;;;;;9.55;4.72;;;0.80;99.90;;;;;;5012754;28;20177;-84
2023/04/20 03:24:05;;;;;;;8.53;5.33;;;0.80;99.90;;;;;;5025548;28;22019;-81
2023/04/20 03:26:30;;;;;;;8.68;5.80;;;0.80;99.90;;;;;;5028939;28;20182;-79
2023/04/20 03:28:56;;;;;;;10.80;5.90;;;;;;;;;;5015648;28;20208;-80
2023/04/20 03:31:22;;;;;;;10.93;6.00;;;0.70;99.90;;;;;;5016568;28;20243;-85
2023/04/20 03:33:47;;;;;;;8.90;5.43;;;0.70;99.90;;;;;;5014854;28;20537;-82
2023/04/20 03:36:13;;;;;;;9.47;5.93;;;;;;;;;;5030216;28;21194;-81
2023/04/20 03:38:39;;;;;;;8.15;4.88;;;0.70;99.90;;;;;;5010431;28;20186;-83
2023/04/20 03:41:06;;;;;;;5.47;4.73;;;0.70;99.90;;;;;;5020662;28;20188;-87
2023/04/20 03:43:32;;;;;;;10.57;6.57;;;;;;;;;;5018851;28;20585;-80
2023/04/20 03:45:58;;;;;;;14.43;6.83;;;0.60;99.90;;;;;;5025367;28;20193;-82
2023/04/20 03:48:24;;;;;;;11.60;5.70;;;;;;;;;;5021096;28;20442;-81
2023/04/20 03:50:50;;;;;;;12.13;6.47;;;0.60;99.90;;;;;;5029910;28;20210;-86
2023/04/20 03:53:15;;;;;;;9.32;6.10;;;0.50;99.90;;;;;;5011502;28;20304;-85
2023/04/20 03:55:41;;;;;;;10.37;6.10;;;0.50;99.90;;;;;;5028281;28;20231;-84
2023/04/20 03:58:07;;;;;;;7.07;5.83;;;;;;;;;;5004585;28;20481;-84
2023/04/20 04:00:33;;;;;;;11.30;6.28;;;;;;;;;;5028292;28;20774;-83
2023/04/20 04:02:59;;;;;;;11.27;6.70;;;0.60;99.90;;;;;;5023717;28;20193;-84
2023/04/20 04:05:25;;;;;;;9.00;5.87;;;0.60;99.90;;;;;;5012513;28;20589;-82
2023/04/20 04:07:50;;;;;;;14.37;7.10;;;0.60;99.90;;;;;;5032448;28;20910;-82
2023/04/20 04:10:17;;;;;;;8.73;5.50;;;0.60;99.90;;;;;;5030574;28;20220;-83
2023/04/20 04:12:44;;;;;;;13.98;6.25;;;0.70;99.90;;;;;;5015353;28;20901;-82
2023/04/20 04:15:10;;;;;;;15.25;6.78;;;0.60;99.90;;;;;;5006116;28;20188;-83
2023/04/20 04:17:35;;;;;;;10.15;6.30;;;0.60;99.90;;;;;;5008740;28;20209;-84
2023/04/20 04:20:01;;;;;;;10.00;6.20;;;0.60;99.90;;;;;;5025445;28;20289;-81
2023/04/20 04:22:26;;;;;;;8.87;6.00;;;0.60;99.90;;;;;;5011944;28;22335;-83
2023/04/20 04:24:53;;;;;;;10.17;6.40;;;;;;;;;;5027403;28;20185;-80
2023/04/20 04:27:21;;;;;;;10.45;6.20;;;0.60;99.90;;;;;;5022824;28;20188;-82
2023/04/20 04:29:48;;;;;;;7.68;5.88;;;0.60;99.90;;;;;;5020251;28;20221;-80
2023/04/20 04:32:15;;;;;;;12.95;6.40;;;0.60;99.90;;;;;;5022098;28;20185;-84
2023/04/20 04:34:43;;;;;;;11.25;7.35;;;0.70;99.90;;;;;;5033874;28;20266;-82
2023/04/20 04:37:09;;;;;;;11.52;7.20;;;0.90;99.90;;;;;;5035146;28;20259;-80
2023/04/20 04:39:35;;;;;;;22.50;11.25;;;0.90;99.90;;;;;;5031299;28;20216;-86
2023/04/20 04:42:02;;;;;;;19.15;10.60;;;1.00;99.90;;;;;;5027101;28;20188;-85
2023/04/20 04:44:28;;;;;;;13.65;8.50;;;1.20;99.90;;;;;;5030075;28;20199;-81
2023/04/20 04:46:54;;;;;;;13.63;7.45;;;1.90;99.90;;;;;;5034701;28;20178;-82
2023/04/20 04:49:20;;;;;;;10.80;7.37;;;2.90;99.90;;;;;;5031568;28;20200;-84
2023/04/20 04:51:46;;;;;;;11.77;6.15;;;4.00;99.90;;;;;;5034736;28;20173;-84
2023/04/20 04:54:12;;;;;;;11.67;6.80;;;;;;;;;;5034749;28;20216;-83
2023/04/20 04:56:38;;;;;;;9.60;5.90;;;;;;;;;;5034544;28;20177;-77
2023/04/20 04:59:03;;;;;;;12.03;5.60;;;6.30;99.90;;;;;;5017614;28;20741;-85
2023/04/20 05:01:29;;;;;;;6.03;4.30;;;7.50;99.90;;;;;;5031676;28;20446;-84
2023/04/20 05:03:55;;;;;;;12.00;4.90;;;;;;;;;;5015929;28;20648;-83
2023/04/20 05:06:20;;;;;;;6.10;4.30;;;10.40;99.90;;;;;;5049593;22;20185;-85
2023/04/20 05:08:46;;;;;;;11.37;6.60;;;11.70;99.90;;;;;;5049369;28;20203;-85
2023/04/20 05:11:12;;;;;;;8.10;5.63;;;;;;;;;;5034587;28;20270;-86
2023/04/20 05:13:37;;;;;;;9.20;5.50;;;;;;;;;;5041316;28;20229;-85
2023/04/20 05:16:03;;;;;;;7.73;4.73;;;;;;;;;;5005436;28;20424;-85
2023/04/20 05:18:29;;;;;;;10.68;4.85;;;;;;;;;;5022631;28;20543;-85
2023/04/20 05:20:55;;;;;;;7.50;4.30;;;;;;;;;;5023324;28;20205;-86
2023/04/20 05:23:21;;;;;;;5.23;4.73;;;;;;;;;;5024325;28;20460;-86
2023/04/20 05:25:47;;;;;;;7.40;5.43;;;;;;;;;;5020529;28;20433;-86
2023/04/20 05:28:13;;;;;;;8.07;5.07;;;;;;;;;;5019482;28;21014;-85
2023/04/20 05:30:39;;;;;;;7.23;5.70;;;;;;;;;;5019154;28;20798;-86
2023/04/20 05:33:05;;;;;;;8.23;6.03;;;;;;;;;;5020775;28;20519;-86
2023/04/20 05:35:31;;;;;;;10.30;6.63;;;;;;;;;;5021031;28;20479;-86
2023/04/20 05:37:59;;;;;;;10.40;6.70;;;;;;;;;;5019481;28;20928;-86
2023/04/20 05:40:25;;;;;;;9.07;6.20;;;;;;;;;;5020436;28;20433;-85
2023/04/20 05:42:51;;;;;;;7.70;5.50;;;;;;;;;;5020760;28;20421;-86
2023/04/20 05:45:17;;;;;;;9.37;5.47;;;;;;;;;;5020756;28;21262;-85
2023/04/20 05:47:52;;;;;;;9.27;5.53;;;22.20;67.60;;;;;;5021275;28;20433;-86
2023/04/20 05:50:18;;;;;;;9.13;7.67;;;;;;;;;;5024376;28;20457;-86
2023/04/20 05:52:44;;;;;;;7.83;6.80;;;;;;;;;;5021744;28;20910;-86
2023/04/20 05:55:09;;;;;;;8.40;5.27;;;;;;;;;;5020746;28;20457;-86
2023/04/20 05:57:41;;;;;;;5.90;5.07;;;;;;;;;;5022133;28;20812;-86
2023/04/20 06:00:11;;;;;;;8.47;5.40;;;23.70;57.90;;;;;;5018662;28;20451;-86
2023/04/20 06:02:37;;;;;;;10.60;5.83;;;;;;;;;;5008717;28;20446;-85
2023/04/20 06:05:03;;;;;;;5.47;4.27;;;;;;;;;;5021090;28;20459;-86
2023/04/20 06:07:29;;;;;;;7.10;5.40;;;;;;;;;;5023216;28;20473;-85
2023/04/20 06:09:56;;;;;;;7.33;6.30;;;;;;;;;;5020789;28;20471;-86
2023/04/20 06:12:22;;;;;;;6.27;5.67;;;;;;;;;;5018985;28;20855;-86
2023/04/20 06:14:47;;;;;;;9.93;6.43;;;;;;;;;;5023647;28;20441;-86
2023/04/20 06:17:14;;;;;;;8.93;6.20;;;;;;;;;;5024373;28;20525;-85
2023/04/20 06:19:39;;;;;;;7.00;5.80;;;;;;;;;;5022442;28;20439;-86
2023/04/20 06:22:07;;;;;;;10.20;6.20;;;28.80;38.80;;;;;;5024575;28;20439;-86
2023/04/20 06:24:34;;;;;;;8.93;5.80;;;28.70;38.20;;;;;;5012917;28;20500;-86
2023/04/20 06:27:00;;;;;;;11.80;6.30;;;;;;;;;;5023933;28;20506;-86
2023/04/20 06:29:26;;;;;;;8.73;6.30;;;28.10;50.00;;;;;;5021290;28;20434;-85
2023/04/20 06:31:52;;;;;;;6.80;6.20;;;;;;;;;;5023396;28;20435;-86
2023/04/20 06:34:18;;;;;;;8.50;6.70;;;;;;;;;;5023112;28;20202;-86
2023/04/20 06:36:44;;;;;;;8.93;6.03;;;;;;;;;;5022267;28;20918;-86
2023/04/20 06:39:10;;;;;;;9.63;7.00;;;;;;;;;;5022638;28;20424;-85
2023/04/20 06:41:39;;;;;;;8.93;6.73;;;27.20;41.40;;;;;;5025471;28;20436;-86
2023/04/20 06:44:05;;;;;;;6.50;5.90;;;;;;;;;;5010582;28;20456;-85
2023/04/20 06:46:31;;;;;;;8.90;6.50;;;28.00;36.00;;;;;;5023038;28;21156;-85
2023/04/20 06:48:58;;;;;;;8.40;7.60;;;;;;;;;;5027227;28;20547;-85
2023/04/20 06:51:24;;;;;;;7.53;6.70;;;;;;;;;;5023813;28;21001;-84
2023/04/20 06:53:50;;;;;;;8.43;7.00;;;;;;;;;;5023483;28;20503;-86
2023/04/20 06:56:15;;;;;;;8.30;7.40;;;;;;;;;;5025462;28;20432;-86
2023/04/20 06:58:41;;;;;;;7.87;6.53;;;;;;;;;;5028545;28;20432;-85
2023/04/20 07:01:07;;;;;;;9.50;6.10;;;;;;;;;;5027305;28;20460;-85
2023/04/20 07:03:33;;;;;;;9.00;6.40;;;;;;;;;;5021866;28;20456;-85
2023/04/20 07:05:59;;;;;;;9.13;6.77;;;27.20;50.40;;;;;;5022352;28;20459;-85
2023/04/20 07:08:25;;;;;;;7.83;6.57;;;;;;;;;;5006865;28;20441;-85
2023/04/20 07:10:51;;;;;;;6.70;6.07;;;;;;;;;;5022975;28;20225;-85
2023/04/20 07:13:17;;;;;;;9.47;7.30;;;;;;;;;;5023118;28;20844;-85
2023/04/20 07:15:44;;;;;;;15.40;7.60;;;27.40;38.20;;;;;;5030522;28;20713;-86
2023/04/20 07:18:10;;;;;;;9.20;6.67;;;;;;;;;;5013862;28;20433;-85
2023/04/20 07:20:36;;;;;;;8.93;6.30;;;;;;;;;;5015990;28;20858;-85
2023/04/20 07:23:02;;;;;;;8.60;6.77;;;;;;;;;;5025969;28;20427;-85
2023/04/20 07:25:30;;;;;;;7.80;6.57;;;;;;;;;;5020368;28;20441;-86
2023/04/20 07:27:56;;;;;;;8.53;6.90;;;;;;;;;;5023528;28;20425;-87
2023/04/20 07:30:22;;;;;;;8.30;7.30;;;;;;;;;;5023168;28;20468;-85
2023/04/20 07:32:48;;;;;;;9.77;7.23;;;;;;;;;;5023630;28;20895;-85
2023/04/20 07:35:15;;;;;;;8.30;7.07;;;;;;;;;;5022055;28;20471;-86
2023/04/20 07:37:41;;;;;;;10.07;7.53;;;;;;;;;;5024939;28;20517;-89
2023/04/20 07:40:07;;;;;;;8.07;7.20;;;26.60;47.50;;;;;;5019952;28;20935;-85
2023/04/20 07:42:35;;;;;;;8.93;7.77;;;27.90;52.50;;;;;;5010364;28;20543;-84
2023/04/20 07:45:01;;;;;;;9.93;7.73;;;;;;;;;;5040033;22;20584;-88
2023/04/20 07:47:27;;;;;;;8.87;7.33;;;;;;;;;;5021079;28;21113;-88
2023/04/20 07:49:53;;;;;;;9.00;7.07;;;;;;;;;;5038433;28;20493;-89
2023/04/20 07:52:19;;;;;;;9.23;7.00;;;;;;;;;;5041589;28;20872;-89
2023/04/20 07:54:45;;;;;;;9.67;7.87;;;;;;;;;;5020190;28;20511;-88
2023/04/20 07:57:12;;;;;;;7.03;6.33;;;;;;;;;;5037814;28;20480;-89
2023/04/20 07:59:39;;;;;;;7.70;6.90;;;;;;;;;;5023614;28;20444;-88
2023/04/20 08:02:05;;;;;;;8.47;6.83;;;;;;;;;;5020761;28;20509;-86
2023/04/20 08:04:31;;;;;;;10.00;7.80;;;;;;;;;;5022560;28;21030;-87
2023/04/20 08:06:57;;;;;;;8.30;6.40;;;;;;;;;;5040139;28;20443;-86
2023/04/20 08:09:24;;;;;;;11.93;6.43;;;;;;;;;;5041873;28;20496;-88
2023/04/20 08:11:50;;;;;;;9.50;7.30;;;;;;;;;;5021793;28;20439;-89
2023/04/20 08:14:16;;;;;;;11.87;7.10;;;;;;;;;;5020616;28;20521;-87
2023/04/20 08:16:42;;;;;;;8.40;7.00;;;;;;;;;;5038453;28;20451;-89
2023/04/20 08:19:11;;;;;;;7.00;6.30;;;;;;;;;;5020127;28;20480;-88
2023/04/20 08:21:38;;;;;;;9.27;7.83;;;25.60;38.70;;;;;;5019167;28;20508;-88
2023/04/20 08:24:04;;;;;;;8.10;6.83;;;;;;;;;;5038761;28;20436;-85
2023/04/20 08:26:30;;;;;;;9.93;7.10;;;24.50;40.50;;;;;;5020926;28;20576;-88
2023/04/20 08:28:56;;;;;;;10.37;7.50;;;;;;;;;;5020326;28;20472;-86
2023/04/20 08:31:22;;;;;;;11.57;7.73;;;;;;;;;;5023971;28;20476;-88
2023/04/20 08:33:48;;;;;;;7.33;6.63;;;;;;;;;;5021367;28;20429;-87
2023/04/20 08:36:14;;;;;;;8.57;7.40;;;;;;;;;;5023363;28;20433;-88
2023/04/20 08:38:40;;;;;;;8.40;7.60;;;;;;;;;;5027983;28;20435;-88
2023/04/20 08:41:06;;;;;;;10.90;7.53;;;;;;;;;;5021409;28;20436;-88
2023/04/20 08:43:32;;;;;;;10.37;7.20;;;;;;;;;;5019950;28;20453;-87
2023/04/20 08:46:00;;;;;;;9.27;7.90;;;21.60;45.80;;;;;;5038335;28;20503;-86
2023/04/20 08:48:34;;;;;;;11.53;7.30;;;23.10;44.10;;;;;;5027645;28;20468;-90
2023/04/20 08:51:01;;;;;;;11.53;7.83;;;21.70;42.80;;;;;;5037092;28;20466;-87
2023/04/20 08:53:27;;;;;;;11.10;7.60;;;;;;;;;;5025980;28;20428;-88
2023/04/20 08:55:55;;;;;;;11.70;7.40;;;;;;;;;;5035205;28;20443;-84
2023/04/20 08:58:22;;;;;;;9.23;7.57;;;19.80;45.40;;;;;;5029461;28;20509;-88
2023/04/20 09:00:48;;;;;;;12.60;7.50;;;;;;;;;;5025067;28;20808;-86
2023/04/20 09:03:14;;;;;;;10.03;7.50;;;;;;;;;;5038473;28;20464;-88
2023/04/20 09:05:40;;;;;;;12.50;7.77;;;17.20;51.90;;;;;;5038260;28;20442;-87
2023/04/20 09:08:07;;;;;;;10.57;7.53;;;16.70;54.40;;;;;;5023022;28;20569;-88
2023/04/20 09:10:43;;;;;;;9.57;6.60;;;16.50;54.00;;;;;;5020693;28;20208;-89
2023/04/20 09:13:20;;;;;;;9.80;6.50;;;16.20;55.40;;;;;;5035043;28;20838;-86
2023/04/20 09:15:46;;;;;;;25.43;7.67;;;;;;;;;;5025381;28;20435;-87
2023/04/20 09:18:13;;;;;;;10.77;7.13;;;15.10;56.80;;;;;;5022915;28;20832;-87
2023/04/20 09:20:39;;;;;;;11.73;7.83;;;14.20;58.20;;;;;;5041421;28;20436;-86
2023/04/20 09:23:31;;;;;;;15.23;7.40;;;13.90;59.70;;;;;;5019890;28;20783;-88
2023/04/20 09:25:56;;;;;;;10.67;7.40;;;13.50;62.30;;;;;;5036174;28;20446;-87
2023/04/20 09:28:22;;;;;;;8.70;6.10;;;13.10;66.40;;;;;;5037991;28;21143;-86
2023/04/20 09:30:50;;;;;;;11.00;7.40;;;13.30;71.40;;;;;;5038107;28;20207;-87
2023/04/20 09:33:16;;;;;;;8.35;6.60;;;13.10;73.40;;;;;;5035479;28;20186;-88
2023/04/20 09:35:43;;;;;;;6.83;6.13;;;12.90;73.20;;;;;;5016420;28;20576;-88
2023/04/20 09:38:10;;;;;;;11.98;7.22;;;12.80;74.80;;;;;;5035752;28;20669;-88
2023/04/20 09:40:36;;;;;;;11.48;6.10;;;12.60;76.00;;;;;;5035638;28;20486;-87
2023/04/20 09:43:07;;;;;;;10.07;7.10;;;12.40;74.40;;;;;;5039458;28;20189;-88
2023/04/20 09:45:33;;;;;;;9.32;6.35;;;12.20;78.90;;;;;;5037568;28;20305;-88
2023/04/20 09:47:59;;;;;;;8.43;6.18;;;12.00;81.60;;;;;;5025517;28;20197;-88
2023/04/20 09:50:25;;;;;;;8.70;6.40;;;12.30;83.00;;;;;;5034628;28;21085;-87
2023/04/20 09:52:52;;;;;;;6.33;4.60;;;12.40;83.40;;;;;;5018243;28;20440;-87
2023/04/20 09:55:18;;;;;;;10.85;6.65;;;12.10;84.50;;;;;;5025620;28;20435;-87
2023/04/20 09:57:44;;;;;;;9.15;6.25;;;11.70;85.70;;;;;;5038426;28;20201;-87
2023/04/20 10:00:11;;;;;;;12.27;6.38;;;11.40;89.40;;;;;;5039617;28;20185;-86
2023/04/20 10:02:37;;;;;;;7.75;5.53;;;11.20;91.50;;;;;;5038978;28;20282;-87
2023/04/20 10:05:03;;;;;;;6.05;4.97;;;10.80;93.40;;;;;;5053177;28;20212;-86
2023/04/20 10:07:30;;;;;;;8.53;5.80;;;10.50;96.10;;;;;;5029959;28;20209;-85
2023/04/20 10:10:13;;;;;;;7.78;5.47;;;10.20;99.90;;;;;;5028082;28;20455;-87
2023/04/20 10:12:54;;;;;;;8.77;5.70;;;10.00;99.90;;;;;;5027807;28;20193;-87
2023/04/20 10:15:23;;;;;;;10.65;6.82;;;9.70;99.90;;;;;;5023735;28;20240;-86
2023/04/20 10:17:49;;;;;;;14.02;7.00;;;9.50;99.90;;;;;;5040563;28;20201;-87
2023/04/20 10:20:24;;;;;;;9.65;6.50;;;9.50;99.90;;;;;;5033296;28;20186;-85
2023/04/20 10:22:51;;;;;;;9.80;5.82;;;9.50;99.90;;;;;;5053077;28;20238;-86
2023/04/20 10:25:23;;;;;;;14.25;7.28;;;9.70;99.90;;;;;;5046922;28;20190;-87
2023/04/20 10:27:57;;;;;;;12.75;7.25;;;9.90;99.90;;;;;;5042708;28;20209;-87
2023/04/20 10:30:24;;;;;;;8.90;5.70;;;10.20;99.90;;;;;;5034992;28;20200;-87
2023/04/20 10:33:04;;;;;;;9.05;6.65;;;10.50;99.90;;;;;;5041946;28;20178;-86
2023/04/20 10:35:47;;;;;;;9.90;5.50;;;10.50;99.90;;;;;;5049418;28;20950;-87
2023/04/20 10:38:14;;;;;;;10.77;6.55;;;10.50;99.90;;;;;;5053672;28;20232;-86
2023/04/20 10:40:40;;;;;;;10.40;6.25;;;10.50;99.90;;;;;;5037417;28;20607;-86
2023/04/20 10:43:18;;;;;;;10.63;6.10;;;10.80;99.90;;;;;;5034196;28;20186;-87
2023/04/20 10:45:44;;;;;;;10.32;6.97;;;;;;;;;;5045635;28;20190;-87
2023/04/20 10:48:10;;;;;;;10.80;6.50;;;10.80;99.90;;;;;;5025639;28;20221;-86
2023/04/20 10:50:36;;;;;;;12.73;7.40;;;10.90;99.90;;;;;;5043318;28;20563;-87
2023/04/20 10:53:03;;;;;;;8.30;6.30;;;11.10;99.90;;;;;;5048093;28;20181;-85
2023/04/20 10:55:29;;;;;;;8.73;6.00;;;;;;;;;;5029323;28;20186;-87
2023/04/20 10:57:55;;;;;;;10.15;6.90;;;11.00;99.90;;;;;;5044556;28;20229;-87
2023/04/20 11:00:23;;;;;;;9.27;6.10;;;11.00;99.90;;;;;;5044531;28;20178;-86
2023/04/20 11:02:51;;;;;;;8.77;6.90;;;10.90;99.90;;;;;;5030333;28;20181;-87
2023/04/20 11:05:17;;;;;;;7.35;5.10;;;;;;;;;;5041704;28;20192;-86
2023/04/20 11:08:00;;;;;;;27.60;18.08;;;10.80;99.90;;;;;;5025492;28;20578;-87
2023/04/20 11:10:41;;;;;;;12.95;8.75;;;10.50;99.90;;;;;;5049105;22;20198;-85
2023/04/20 11:13:19;;;;;;;17.48;10.23;;;10.40;99.90;;;;;;5063530;28;20660;-85
2023/04/20 11:15:44;;;;;;;17.45;8.73;;;10.50;99.90;;;;;;5031472;28;20209;-84
2023/04/20 11:18:10;;;;;;;11.30;6.57;;;10.50;99.90;;;;;;5060306;28;20205;-84
2023/04/20 11:20:48;;;;;;;9.07;6.55;;;11.60;99.90;;;;;;5027712;28;20182;-84
2023/04/20 11:23:13;;;;;;;14.80;7.78;;;10.60;99.90;;;;;;5026777;28;20325;-84
2023/04/20 11:25:48;;;;;;;8.87;6.27;;;10.60;99.90;;;;;;5040905;28;20288;-84
2023/04/20 11:28:14;;;;;;;12.30;9.80;;;10.60;99.90;;;;;;5033533;28;20184;-84
2023/04/20 11:30:40;;;;;;;9.33;6.47;;;10.30;99.90;;;;;;5044186;28;20221;-85
2023/04/20 11:33:06;;;;;;;9.35;6.22;;;;;;;;;;5046569;28;20198;-84
2023/04/20 11:35:37;;;;;;;11.57;7.20;;;10.10;99.90;;;;;;5061828;28;20269;-85
2023/04/20 11:38:03;;;;;;;12.02;6.75;;;9.90;99.90;;;;;;5044910;28;20184;-85
2023/04/20 11:40:28;;;;;;;10.80;6.73;;;9.60;99.90;;;;;;5043779;28;20221;-85
2023/04/20 11:42:54;;;;;;;9.00;5.90;;;9.50;99.90;;;;;;5026795;28;20265;-85
2023/04/20 11:45:20;;;;;;;6.70;4.17;;;9.40;99.90;;;;;;5030592;28;20205;-85
2023/04/20 11:47:46;;;;;;;6.20;5.53;;;9.10;99.90;;;;;;5061914;28;20205;-84
2023/04/20 11:50:11;;;;;;;9.07;6.80;;;8.40;99.90;;;;;;5028567;28;20755;-85
2023/04/20 11:52:37;;;;;;;7.27;5.37;;;;;;;;;;5046361;28;20192;-85
2023/04/20 11:55:03;;;;;;;11.17;6.50;;;7.70;99.90;;;;;;5028324;28;20197;-86
2023/04/20 11:57:29;;;;;;;6.47;5.20;;;7.40;99.90;;;;;;5041680;28;20432;-85
2023/04/20 11:59:55;;;;;;;9.97;5.97;;;7.40;99.90;;;;;;5058813;28;20451;-87
2023/04/20 12:02:21;;;;;;;7.70;5.33;;;7.20;99.90;;;;;;5029984;28;20192;-86
2023/04/20 12:04:47;;;;;;;8.23;6.60;;;7.00;99.90;;;;;;5047734;28;20773;-86
2023/04/20 12:07:12;;;;;;;8.33;6.63;;;7.70;99.90;;;;;;5048497;28;20194;-86
2023/04/20 12:09:39;;;;;;;10.87;6.10;;;7.00;99.90;;;;;;5028194;28;20186;-86
2023/04/20 12:12:05;;;;;;;7.22;5.70;;;7.00;99.90;;;;;;5028565;28;20197;-86
2023/04/20 12:14:32;;;;;;;12.50;6.70;;;;;;;;;;5045416;28;20244;-86
2023/04/20 12:16:58;;;;;;;8.55;5.65;;;7.10;99.90;;;;;;5061347;28;20255;-86
2023/04/20 12:19:24;;;;;;;14.23;6.93;;;7.10;99.90;;;;;;5030022;28;20222;-86
2023/04/20 12:21:50;;;;;;;8.93;5.23;;;;;;;;;;5060179;28;20228;-86
2023/04/20 12:24:16;;;;;;;9.67;6.87;;;7.20;99.90;;;;;;5028604;28;20240;-86
2023/04/20 12:26:41;;;;;;;9.80;6.90;;;7.40;99.90;;;;;;5046618;28;20515;-85
2023/04/20 12:29:07;;;;;;;9.33;6.63;;;7.50;99.90;;;;;;5042391;28;21258;-86
2023/04/20 12:31:34;;;;;;;10.00;7.00;;;7.50;99.90;;;;;;5027050;28;20212;-86
2023/04/20 12:33:59;;;;;;;16.25;8.27;;;7.40;99.90;;;;;;5021673;28;20797;-85
2023/04/20 12:36:26;;;;;;;13.53;7.23;;;8.30;99.90;;;;;;5058516;28;20189;-85
2023/04/20 12:38:54;;;;;;;12.50;8.02;;;7.30;99.90;;;;;;5027690;28;20178;-85
2023/04/20 12:41:21;;;;;;;10.20;7.35;;;7.10;99.90;;;;;;5047750;28;20185;-86
2023/04/20 12:43:50;;;;;;;11.75;7.57;;;7.00;99.90;;;;;;5041146;28;20182;-86
2023/04/20 12:46:16;;;;;;;10.38;7.50;;;7.00;99.90;;;;;;5058444;28;20192;-85
2023/04/20 12:48:44;;;;;;;11.63;7.75;;;7.00;99.90;;;;;;5031424;28;20184;-86
2023/04/20 12:51:09;;;;;;;11.90;9.00;;;7.00;99.90;;;;;;5058512;28;20219;-86
2023/04/20 12:53:35;;;;;;;13.57;7.60;;;;;;;;;;5026638;28;20177;-85
2023/04/20 12:56:01;;;;;;;13.90;8.27;;;6.90;99.90;;;;;;5043748;28;20212;-86
2023/04/20 12:58:27;;;;;;;12.70;8.70;;;;;;;;;;5046418;28;20465;-86
2023/04/20 13:00:52;;;;;;;10.23;7.65;;;7.00;99.90;;;;;;5025768;28;20291;-86
2023/04/20 13:03:18;;;;;;;12.37;7.97;;;7.20;99.90;;;;;;5043448;28;20221;-85
2023/04/20 13:05:43;;;;;;;10.67;7.73;;;7.30;99.90;;;;;;5042006;28;20189;-85
2023/04/20 13:08:09;;;;;;;14.00;8.80;;;7.30;99.90;;;;;;5059482;28;20195;-86
2023/04/20 13:10:38;;;;;;;14.15;8.50;;;7.40;99.90;;;;;;5026321;28;20224;-85
2023/04/20 13:13:04;;;;;;;11.07;8.27;;;7.50;99.90;;;;;;5040756;28;20209;-85
2023/04/20 13:15:30;;;;;;;14.03;9.07;;;;;;;;;;5043027;28;20201;-85
2023/04/20 13:17:56;;;;;;;13.63;8.43;;;7.50;99.90;;;;;;5015876;28;20436;-86
2023/04/20 13:20:22;;;;;;;11.97;7.50;;;;;;;;;;5013343;28;20189;-85
2023/04/20 13:22:48;;;;;;;18.58;9.07;;;7.30;99.90;;;;;;5028186;28;20451;-85